Time;durP1;ratioP1;P1;durP2;ratioP2;P2;SDS_P1;SDS_P2;PMS_P1;PMS_P2;Temp;Humidity;BMP_temperature;BMP_pressure;BME280_temperature;BME280_humidity;BME280_pressure;Samples;Min_cycle;Max_cycle;Signal;HPM_P1;HPM_P2
2023/04/28 00:00:04;;;;;;;5.35;3.60;;;14.30;63.60;;;;;;5001518;28;20112;-76
2023/04/28 00:02:30;;;;;;;4.63;3.38;;;14.30;63.60;;;;;;5034930;28;20045;-75
2023/04/28 00:04:56;;;;;;;5.18;3.35;;;14.20;63.60;;;;;;5001192;28;20031;-75
2023/04/28 00:07:22;;;;;;;4.15;3.28;;;14.30;63.70;;;;;;5035424;28;20516;-76
2023/04/28 00:09:48;;;;;;;4.90;3.63;;;14.20;63.70;;;;;;5035171;28;20037;-76
2023/04/28 00:12:14;;;;;;;4.68;3.55;;;14.20;63.70;;;;;;5017364;28;20038;-75
2023/04/28 00:14:39;;;;;;;4.38;3.50;;;14.20;63.70;;;;;;5000801;28;20025;-75
2023/04/28 00:17:05;;;;;;;3.95;3.10;;;14.20;63.70;;;;;;5001302;28;20441;-76
2023/04/28 00:19:31;;;;;;;4.88;3.78;;;14.20;63.70;;;;;;5000673;28;20025;-74
2023/04/28 00:21:57;;;;;;;4.30;3.17;;;14.20;63.70;;;;;;5001189;28;20033;-74
2023/04/28 00:24:23;;;;;;;4.32;3.30;;;14.10;63.60;;;;;;5000679;28;20394;-75
2023/04/28 00:26:48;;;;;;;4.75;3.42;;;14.10;63.60;;;;;;5017648;28;20029;-75
2023/04/28 00:29:14;;;;;;;4.50;3.35;;;14.10;63.60;;;;;;5000593;28;20036;-75
2023/04/28 00:31:40;;;;;;;4.10;3.22;;;14.10;63.70;;;;;;4984380;28;20040;-75
2023/04/28 00:34:06;;;;;;;3.97;3.05;;;14.00;63.60;;;;;;5000617;28;20029;-75
2023/04/28 00:36:32;;;;;;;5.40;3.38;;;14.10;63.70;;;;;;5034542;28;20022;-75
2023/04/28 00:38:58;;;;;;;5.15;3.58;;;14.10;63.80;;;;;;5000520;28;20497;-75
2023/04/28 00:41:24;;;;;;;4.13;2.85;;;14.00;63.70;;;;;;5000503;28;20061;-74
2023/04/28 00:43:50;;;;;;;4.47;3.40;;;14.00;63.70;;;;;;5000630;28;20030;-75
2023/04/28 00:46:23;;;;;;;5.65;3.30;;;14.00;63.70;;;;;;5000827;28;20022;-75
2023/04/28 00:48:49;;;;;;;3.90;2.92;;;14.00;63.80;;;;;;5034257;28;20029;-75
2023/04/28 00:51:16;;;;;;;4.65;3.63;;;14.00;63.80;;;;;;5016515;28;20040;-75
2023/04/28 00:53:42;;;;;;;3.67;2.95;;;14.00;63.80;;;;;;5016479;28;20014;-77
2023/04/28 00:56:08;;;;;;;5.50;3.35;;;13.90;63.80;;;;;;5000039;28;20025;-75
2023/04/28 00:58:34;;;;;;;4.57;3.35;;;13.90;63.80;;;;;;5016465;28;20045;-74
2023/04/28 01:01:10;;;;;;;4.70;3.40;;;13.90;63.70;;;;;;4999726;28;20117;-75
2023/04/28 01:03:37;;;;;;;4.25;3.25;;;13.90;64.40;;;;;;5015792;28;20076;-75
2023/04/28 01:06:05;;;;;;;3.90;2.67;;;13.90;63.80;;;;;;5016124;28;20025;-76
2023/04/28 01:08:33;;;;;;;3.78;3.08;;;13.80;63.80;;;;;;4999809;28;20068;-75
2023/04/28 01:11:00;;;;;;;4.80;3.20;;;13.80;63.80;;;;;;4999941;28;20030;-74
2023/04/28 01:13:46;;;;;;;3.90;2.90;;;13.80;63.80;;;;;;5018101;28;20402;-74
2023/04/28 01:16:12;;;;;;;3.63;2.88;;;13.80;63.80;;;;;;5015607;28;20107;-74
2023/04/28 01:18:45;;;;;;;4.00;3.10;;;13.80;63.90;;;;;;4999967;28;20385;-75
2023/04/28 01:21:11;;;;;;;4.25;3.13;;;13.80;63.90;;;;;;5016135;28;20502;-74
2023/04/28 01:23:37;;;;;;;3.53;2.72;;;13.80;63.90;;;;;;5000417;28;20033;-75
2023/04/28 01:26:03;;;;;;;4.32;3.10;;;13.80;63.90;;;;;;5015987;28;20048;-76
2023/04/28 01:28:29;;;;;;;3.70;3.00;;;13.70;63.90;;;;;;4999602;28;20029;-74
2023/04/28 01:30:55;;;;;;;3.50;2.70;;;13.70;64.00;;;;;;4999723;28;20469;-75
2023/04/28 01:33:21;;;;;;;4.63;3.30;;;13.70;64.00;;;;;;5000222;28;20033;-77
2023/04/28 01:35:47;;;;;;;4.28;3.13;;;13.70;64.00;;;;;;4999307;28;20101;-76
2023/04/28 01:38:12;;;;;;;3.88;2.70;;;13.70;64.00;;;;;;4967503;28;20033;-76
2023/04/28 01:40:38;;;;;;;3.38;2.80;;;13.60;64.00;;;;;;5000122;28;20104;-74
2023/04/28 01:43:04;;;;;;;4.18;2.97;;;13.60;64.00;;;;;;5015661;28;20033;-74
2023/04/28 01:45:30;;;;;;;3.90;2.97;;;13.60;64.10;;;;;;5016452;28;20045;-74
2023/04/28 01:47:55;;;;;;;4.25;3.10;;;13.60;64.10;;;;;;5015728;28;20542;-75
2023/04/28 01:50:21;;;;;;;4.40;2.95;;;13.60;64.10;;;;;;5015559;28;20538;-75
2023/04/28 01:52:47;;;;;;;4.30;3.15;;;13.60;64.10;;;;;;5015572;28;20083;-74
2023/04/28 01:55:13;;;;;;;4.10;2.92;;;13.60;64.20;;;;;;4982998;28;20105;-74
2023/04/28 01:57:38;;;;;;;3.90;2.70;;;13.50;64.10;;;;;;5015932;28;20123;-74
2023/04/28 02:00:05;;;;;;;4.00;2.90;;;13.50;64.20;;;;;;4999266;28;20037;-75
2023/04/28 02:02:34;;;;;;;3.70;2.92;;;13.50;64.20;;;;;;4999796;28;20034;-76
2023/04/28 02:05:00;;;;;;;3.50;2.83;;;13.50;64.20;;;;;;4999187;28;20371;-74
2023/04/28 02:07:26;;;;;;;3.72;2.60;;;13.50;64.20;;;;;;4999361;28;20041;-74
2023/04/28 02:09:51;;;;;;;3.80;2.78;;;13.50;64.20;;;;;;5015799;28;20044;-74
2023/04/28 02:12:17;;;;;;;4.80;3.30;;;13.40;64.20;;;;;;4999438;28;20057;-74
2023/04/28 02:14:43;;;;;;;4.57;2.97;;;13.40;64.10;;;;;;5001980;28;20033;-74
2023/04/28 02:17:08;;;;;;;3.50;2.65;;;13.40;64.20;;;;;;5002668;28;20552;-74
2023/04/28 02:19:34;;;;;;;4.13;2.83;;;13.40;64.20;;;;;;5019325;28;20053;-76
2023/04/28 02:22:00;;;;;;;4.03;3.00;;;13.40;64.30;;;;;;5003241;28;20553;-75
2023/04/28 02:24:26;;;;;;;3.92;2.83;;;13.40;64.30;;;;;;5003003;28;20056;-75
2023/04/28 02:26:52;;;;;;;3.78;2.92;;;13.40;64.30;;;;;;5002974;28;20065;-75
2023/04/28 02:29:18;;;;;;;4.03;3.00;;;13.30;64.30;;;;;;5036954;28;20029;-75
2023/04/28 02:31:44;;;;;;;4.45;3.22;;;13.30;64.40;;;;;;5019383;28;20049;-76
2023/04/28 02:34:10;;;;;;;3.53;2.80;;;13.30;64.40;;;;;;5003242;28;20030;-75
2023/04/28 02:36:37;;;;;;;3.97;2.88;;;13.30;64.40;;;;;;5019102;28;20036;-76
2023/04/28 02:39:03;;;;;;;4.30;2.85;;;13.30;64.40;;;;;;5002480;28;20132;-75
2023/04/28 02:41:30;;;;;;;3.83;2.78;;;13.30;64.40;;;;;;5036804;28;20053;-75
2023/04/28 02:43:56;;;;;;;4.57;3.30;;;13.20;64.50;;;;;;5019758;28;20034;-75
2023/04/28 02:46:21;;;;;;;4.40;3.33;;;13.20;64.50;;;;;;5018855;28;20382;-75
2023/04/28 02:48:47;;;;;;;3.15;2.60;;;13.20;64.40;;;;;;5037029;28;20034;-75
2023/04/28 02:51:13;;;;;;;3.97;2.88;;;13.20;64.40;;;;;;5002667;28;20075;-75
2023/04/28 02:53:39;;;;;;;4.22;2.75;;;13.20;64.40;;;;;;5002502;28;20025;-75
2023/04/28 02:56:05;;;;;;;3.55;2.92;;;13.20;64.50;;;;;;5002438;28;20401;-75
2023/04/28 02:58:32;;;;;;;5.50;3.05;;;13.10;64.50;;;;;;5002904;28;20037;-75
2023/04/28 03:00:57;;;;;;;3.63;2.90;;;13.10;64.50;;;;;;5002340;28;20037;-75
2023/04/28 03:03:23;;;;;;;3.78;2.67;;;13.10;64.50;;;;;;5002003;28;20117;-75
2023/04/28 03:05:49;;;;;;;3.88;3.05;;;13.10;64.60;;;;;;5002558;28;20120;-75
2023/04/28 03:08:15;;;;;;;3.95;2.95;;;13.10;64.60;;;;;;5018479;28;20068;-76
2023/04/28 03:10:41;;;;;;;3.70;2.80;;;13.10;64.60;;;;;;5002197;28;20034;-75
2023/04/28 03:13:07;;;;;;;4.32;2.83;;;13.00;64.60;;;;;;5019140;28;20034;-75
2023/04/28 03:15:33;;;;;;;3.65;3.00;;;13.00;64.60;;;;;;5002103;28;20195;-75
2023/04/28 03:18:00;;;;;;;3.60;2.80;;;13.00;64.60;;;;;;5036600;28;20500;-75
2023/04/28 03:20:25;;;;;;;3.80;2.78;;;13.00;64.60;;;;;;5002186;28;20072;-75
2023/04/28 03:22:51;;;;;;;3.67;2.88;;;13.00;64.70;;;;;;5002270;28;20049;-76
2023/04/28 03:25:17;;;;;;;3.90;2.72;;;13.00;64.70;;;;;;5001853;28;20436;-75
2023/04/28 03:27:48;;;;;;;3.67;2.70;;;12.90;64.60;;;;;;5003226;28;20033;-75
2023/04/28 03:30:14;;;;;;;3.92;2.85;;;13.00;64.70;;;;;;5018884;28;20442;-75
2023/04/28 03:32:40;;;;;;;4.10;2.95;;;12.90;64.70;;;;;;5035628;28;20414;-77
2023/04/28 03:35:06;;;;;;;3.78;2.80;;;13.00;64.80;;;;;;4985597;28;20029;-75
2023/04/28 03:37:32;;;;;;;3.80;2.70;;;12.90;64.70;;;;;;5001791;28;20032;-75
2023/04/28 03:39:58;;;;;;;2.92;2.40;;;12.90;64.70;;;;;;5035623;28;20084;-76
2023/04/28 03:42:24;;;;;;;3.63;2.83;;;12.90;64.70;;;;;;5002347;28;20060;-75
2023/04/28 03:45:19;;;;;;;3.88;2.97;;;12.90;64.70;;;;;;5010121;28;20046;-75
2023/04/28 03:47:45;;;;;;;3.53;2.95;;;12.90;64.70;;;;;;4985547;28;20038;-75
2023/04/28 03:50:11;;;;;;;3.38;2.75;;;12.80;64.70;;;;;;5001452;28;20037;-75
2023/04/28 03:52:37;;;;;;;3.70;2.67;;;12.90;64.80;;;;;;5035225;28;20112;-75
2023/04/28 03:55:05;;;;;;;3.50;2.60;;;12.80;64.80;;;;;;5001583;28;20065;-76
2023/04/28 03:57:31;;;;;;;3.88;3.00;;;12.80;64.80;;;;;;5017687;28;20030;-75
2023/04/28 03:59:56;;;;;;;3.67;2.92;;;12.80;64.80;;;;;;5001333;28;20087;-76
2023/04/28 04:02:22;;;;;;;4.07;2.97;;;12.80;64.80;;;;;;5017627;28;20041;-75
2023/04/28 04:04:48;;;;;;;4.75;2.80;;;12.80;64.80;;;;;;5017815;28;20042;-75
2023/04/28 04:07:14;;;;;;;3.88;2.80;;;12.80;64.80;;;;;;4985012;28;20025;-75
2023/04/28 04:09:40;;;;;;;4.00;2.90;;;12.80;64.90;;;;;;4985237;28;20045;-75
2023/04/28 04:12:06;;;;;;;3.42;2.90;;;12.70;64.80;;;;;;5001960;28;20091;-75
2023/04/28 04:14:32;;;;;;;3.63;2.75;;;12.80;65.00;;;;;;5000845;28;20030;-76
2023/04/28 04:16:59;;;;;;;4.45;3.00;;;12.80;65.00;;;;;;5017012;28;20557;-75
2023/04/28 04:19:25;;;;;;;3.25;2.60;;;12.80;65.00;;;;;;5001649;28;20095;-75
2023/04/28 04:21:52;;;;;;;3.78;3.00;;;12.70;65.00;;;;;;5001283;28;20490;-75
2023/04/28 04:24:18;;;;;;;3.88;3.03;;;12.70;65.00;;;;;;5000796;28;20053;-75
2023/04/28 04:26:44;;;;;;;4.15;3.10;;;12.70;64.90;;;;;;5001525;28;20132;-75
2023/04/28 04:29:25;;;;;;;4.38;3.15;;;12.70;65.00;;;;;;5003591;28;20060;-76
2023/04/28 04:31:50;;;;;;;4.32;3.33;;;12.70;65.00;;;;;;5016904;28;20471;-75
2023/04/28 04:34:17;;;;;;;3.92;2.83;;;12.70;65.10;;;;;;5000850;28;20035;-75
2023/04/28 04:36:43;;;;;;;4.05;2.97;;;12.60;65.00;;;;;;5000084;28;20032;-75
2023/04/28 04:39:08;;;;;;;3.40;2.70;;;12.70;65.10;;;;;;5000774;28;20124;-76
2023/04/28 04:41:34;;;;;;;3.78;2.92;;;12.60;65.10;;;;;;5000728;28;20072;-75
2023/04/28 04:44:18;;;;;;;4.20;3.08;;;12.60;65.10;;;;;;4976010;28;20438;-75
2023/04/28 04:46:47;;;;;;;3.85;2.90;;;12.60;65.10;;;;;;5016632;28;20031;-75
2023/04/28 04:49:14;;;;;;;4.43;3.25;;;12.60;65.20;;;;;;5000474;28;20037;-75
2023/04/28 04:51:39;;;;;;;3.95;2.95;;;12.60;65.20;;;;;;5000297;28;20029;-75
2023/04/28 04:54:06;;;;;;;3.97;2.97;;;12.60;65.20;;;;;;5000285;28;20464;-75
2023/04/28 04:56:32;;;;;;;4.72;3.42;;;12.60;65.30;;;;;;5000496;28;20025;-75
2023/04/28 04:58:58;;;;;;;3.30;2.67;;;12.60;65.30;;;;;;5000155;28;20485;-76
2023/04/28 05:01:42;;;;;;;4.32;3.05;;;12.50;65.40;;;;;;5019570;28;20235;-76
2023/04/28 05:04:08;;;;;;;4.00;2.80;;;12.50;65.30;;;;;;5017288;28;20042;-75
2023/04/28 05:06:35;;;;;;;4.93;3.38;;;12.50;65.40;;;;;;5016904;28;20189;-76
2023/04/28 05:09:00;;;;;;;4.22;3.10;;;12.50;65.40;;;;;;5016981;28;20033;-76
2023/04/28 05:11:26;;;;;;;3.92;3.00;;;12.50;65.40;;;;;;4967694;28;20120;-75
2023/04/28 05:13:52;;;;;;;4.80;3.15;;;12.50;65.40;;;;;;4999825;28;20418;-75
2023/04/28 05:16:17;;;;;;;3.85;3.03;;;12.50;65.40;;;;;;4999605;28;20057;-75
2023/04/28 05:19:00;;;;;;;4.55;3.25;;;12.50;65.40;;;;;;5002408;28;20045;-75
2023/04/28 05:21:27;;;;;;;3.83;3.03;;;12.50;65.40;;;;;;5015921;28;20038;-75
2023/04/28 05:23:53;;;;;;;4.00;2.80;;;12.50;65.50;;;;;;5000432;28;20029;-75
2023/04/28 05:26:18;;;;;;;4.03;3.03;;;12.50;65.50;;;;;;5000236;28;20052;-75
2023/04/28 05:28:45;;;;;;;4.07;2.97;;;12.40;65.50;;;;;;5015895;28;20041;-76
2023/04/28 05:31:10;;;;;;;4.68;3.08;;;12.40;65.50;;;;;;5015864;28;20033;-76
2023/04/28 05:33:40;;;;;;;4.68;3.28;;;12.50;65.60;;;;;;5015896;28;20129;-76
2023/04/28 05:36:06;;;;;;;4.03;3.13;;;12.50;65.60;;;;;;4968601;28;20092;-76
2023/04/28 05:38:32;;;;;;;4.40;3.25;;;12.40;65.50;;;;;;4999545;28;20477;-74
2023/04/28 05:40:59;;;;;;;4.57;3.30;;;12.50;65.50;;;;;;4999541;28;20539;-76
2023/04/28 05:43:25;;;;;;;4.50;3.45;;;12.40;65.50;;;;;;4999616;28;20074;-77
2023/04/28 05:45:52;;;;;;;4.60;3.38;;;12.40;65.50;;;;;;4984394;28;20030;-76
2023/04/28 05:48:18;;;;;;;4.38;3.30;;;12.40;65.40;;;;;;5014520;28;20080;-76
2023/04/28 05:50:44;;;;;;;5.43;4.20;;;12.40;65.50;;;;;;5015817;28;20429;-76
2023/04/28 05:53:11;;;;;;;4.38;3.60;;;12.40;65.50;;;;;;4983559;28;20045;-77
2023/04/28 05:55:39;;;;;;;5.03;3.60;;;12.40;65.50;;;;;;4999723;28;20511;-76
2023/04/28 05:58:05;;;;;;;4.55;3.45;;;12.40;65.50;;;;;;5033101;28;20037;-76
2023/04/28 06:00:33;;;;;;;5.57;3.70;;;12.40;65.40;;;;;;4999396;28;20025;-76
2023/04/28 06:02:59;;;;;;;5.43;4.10;;;12.40;65.50;;;;;;4999278;28;20030;-76
2023/04/28 06:05:25;;;;;;;5.00;3.60;;;12.40;65.50;;;;;;4999238;28;20120;-77
2023/04/28 06:07:54;;;;;;;5.32;3.63;;;12.40;65.40;;;;;;4999244;28;20029;-76
2023/04/28 06:10:22;;;;;;;4.80;3.75;;;12.40;65.50;;;;;;5015350;28;20147;-76
2023/04/28 06:12:47;;;;;;;5.25;3.80;;;12.40;65.50;;;;;;5015217;28;20079;-76
2023/04/28 06:15:15;;;;;;;4.72;3.45;;;12.40;65.60;;;;;;4983060;28;20539;-76
2023/04/28 06:17:41;;;;;;;5.13;3.80;;;12.40;65.60;;;;;;4999710;28;20049;-76
2023/04/28 06:20:09;;;;;;;5.43;4.07;;;12.40;65.60;;;;;;4999112;28;20037;-76
2023/04/28 06:22:36;;;;;;;4.90;3.70;;;12.40;65.60;;;;;;4968060;28;20072;-76
2023/04/28 06:25:02;;;;;;;4.88;3.78;;;12.40;65.60;;;;;;5016086;28;20401;-76
2023/04/28 06:27:33;;;;;;;4.63;3.60;;;12.40;65.60;;;;;;5000250;28;20083;-76
2023/04/28 06:29:59;;;;;;;4.75;3.65;;;12.40;65.50;;;;;;4999217;28;20037;-76
2023/04/28 06:32:25;;;;;;;5.10;3.90;;;12.40;65.50;;;;;;5015228;28;20478;-76
2023/04/28 06:34:51;;;;;;;4.75;3.72;;;12.40;65.50;;;;;;5015295;28;20052;-76
2023/04/28 06:37:17;;;;;;;4.70;3.72;;;12.40;65.50;;;;;;4998980;28;20029;-76
2023/04/28 06:39:43;;;;;;;5.40;4.05;;;12.40;66.20;;;;;;4998953;28;20124;-76
2023/04/28 06:42:09;;;;;;;5.95;4.00;;;12.40;65.60;;;;;;4999569;28;20114;-76
2023/04/28 06:44:40;;;;;;;5.82;3.72;;;12.40;65.60;;;;;;5016150;28;20128;-76
2023/04/28 06:47:06;;;;;;;5.80;4.28;;;12.50;65.60;;;;;;5015943;28;20057;-76
2023/04/28 06:49:31;;;;;;;5.38;4.25;;;12.40;65.60;;;;;;4998983;28;20042;-76
2023/04/28 06:51:59;;;;;;;5.43;4.10;;;12.50;65.70;;;;;;4999132;28;20044;-76
2023/04/28 06:54:28;;;;;;;5.53;4.35;;;12.50;65.70;;;;;;4999194;28;20033;-76
2023/04/28 06:56:54;;;;;;;5.93;4.55;;;12.50;65.70;;;;;;4998946;28;20034;-77
2023/04/28 06:59:22;;;;;;;5.68;4.43;;;12.50;65.80;;;;;;5000165;28;20370;-76
2023/04/28 07:01:48;;;;;;;5.80;4.32;;;12.50;65.80;;;;;;5036556;28;20029;-76
2023/04/28 07:04:14;;;;;;;6.43;4.80;;;12.50;65.90;;;;;;5002662;28;20109;-77
2023/04/28 07:06:40;;;;;;;6.43;4.90;;;12.50;66.00;;;;;;5002297;28;20026;-77
2023/04/28 07:09:06;;;;;;;6.40;4.60;;;12.50;66.00;;;;;;4985926;28;20501;-76
2023/04/28 07:11:32;;;;;;;6.68;4.78;;;12.50;66.10;;;;;;5018290;28;20049;-76
2023/04/28 07:13:58;;;;;;;5.88;4.53;;;12.50;66.10;;;;;;4986128;28;20099;-76
2023/04/28 07:16:24;;;;;;;6.05;4.57;;;12.50;66.10;;;;;;4985901;28;20049;-76
2023/04/28 07:18:50;;;;;;;5.90;4.55;;;12.50;66.10;;;;;;5036129;28;20026;-76
2023/04/28 07:21:16;;;;;;;5.53;4.25;;;12.60;66.20;;;;;;5035953;28;20464;-76
2023/04/28 07:23:42;;;;;;;6.38;4.45;;;12.60;66.20;;;;;;5018192;28;20030;-76
2023/04/28 07:26:08;;;;;;;6.90;4.65;;;12.60;66.20;;;;;;5001889;28;20078;-76
2023/04/28 07:28:37;;;;;;;6.13;4.60;;;12.70;66.20;;;;;;5018008;28;20029;-78
2023/04/28 07:31:03;;;;;;;6.07;4.65;;;12.70;66.20;;;;;;5001858;28;20052;-78
2023/04/28 07:33:28;;;;;;;6.38;4.70;;;12.70;66.20;;;;;;5018022;28;20017;-78
2023/04/28 07:35:54;;;;;;;6.38;5.00;;;12.80;66.30;;;;;;5001740;28;20113;-78
2023/04/28 07:38:20;;;;;;;7.15;4.95;;;12.70;66.20;;;;;;5018015;28;20079;-78
2023/04/28 07:40:46;;;;;;;7.18;4.75;;;12.80;66.20;;;;;;5018387;28;20370;-78
2023/04/28 07:43:12;;;;;;;6.57;4.85;;;12.80;66.20;;;;;;5001547;28;20487;-78
2023/04/28 07:45:39;;;;;;;6.43;5.40;;;12.80;66.20;;;;;;4985276;28;20025;-77
2023/04/28 07:48:05;;;;;;;6.57;4.28;;;12.90;66.40;;;;;;5001732;28;20454;-79
2023/04/28 07:50:31;;;;;;;6.20;4.82;;;12.90;66.30;;;;;;5017838;28;20071;-77
2023/04/28 07:52:57;;;;;;;6.22;4.80;;;12.90;66.30;;;;;;5001178;28;20094;-78
2023/04/28 07:55:23;;;;;;;5.78;4.47;;;12.90;66.30;;;;;;5001571;28;20051;-77
2023/04/28 07:57:49;;;;;;;6.47;5.20;;;13.00;66.30;;;;;;5017646;28;20033;-78
2023/04/28 08:00:16;;;;;;;6.05;4.63;;;13.00;66.30;;;;;;5035350;28;20092;-78
2023/04/28 08:02:42;;;;;;;6.45;4.75;;;13.10;66.30;;;;;;5017930;28;20026;-76
2023/04/28 08:05:08;;;;;;;6.75;5.18;;;13.10;66.30;;;;;;5001583;28;20368;-77
2023/04/28 08:07:36;;;;;;;6.40;5.28;;;13.10;66.30;;;;;;5001691;28;20413;-77
2023/04/28 08:10:05;;;;;;;6.13;4.82;;;13.10;66.30;;;;;;5017731;28;20052;-77
2023/04/28 08:12:31;;;;;;;6.40;4.80;;;13.20;66.30;;;;;;5000826;28;20084;-77
2023/04/28 08:14:57;;;;;;;5.65;4.55;;;13.20;66.30;;;;;;4984836;28;20078;-77
2023/04/28 08:17:23;;;;;;;6.38;4.97;;;13.30;66.30;;;;;;4984744;28;20053;-76
2023/04/28 08:19:49;;;;;;;6.93;5.07;;;13.30;66.30;;;;;;5001119;28;20377;-77
2023/04/28 08:22:15;;;;;;;6.35;4.60;;;13.30;66.30;;;;;;5000954;28;20045;-76
2023/04/28 08:24:41;;;;;;;6.25;4.97;;;13.30;66.30;;;;;;5000847;28;20147;-76
2023/04/28 08:27:07;;;;;;;6.35;5.13;;;13.30;66.30;;;;;;5000612;28;20426;-77
2023/04/28 08:29:33;;;;;;;6.10;4.88;;;13.40;66.30;;;;;;4985234;28;20037;-77
2023/04/28 08:32:00;;;;;;;6.95;4.90;;;13.40;66.30;;;;;;5034955;28;20025;-76
2023/04/28 08:34:26;;;;;;;6.05;4.78;;;13.40;66.20;;;;;;5017981;28;20121;-77
2023/04/28 08:36:52;;;;;;;7.35;5.40;;;13.50;66.30;;;;;;5017213;28;20030;-76
2023/04/28 08:39:22;;;;;;;5.88;4.72;;;13.50;66.20;;;;;;5017137;28;20421;-76
2023/04/28 08:41:48;;;;;;;6.70;4.82;;;13.50;66.20;;;;;;5017848;28;20104;-76
2023/04/28 08:44:14;;;;;;;6.32;4.88;;;13.60;66.30;;;;;;5000534;28;20125;-77
2023/04/28 08:46:43;;;;;;;6.38;4.95;;;13.60;66.30;;;;;;5016780;28;20026;-77
2023/04/28 08:49:17;;;;;;;5.72;4.65;;;13.60;66.30;;;;;;5034444;28;20506;-76
2023/04/28 08:52:08;;;;;;;6.95;5.10;;;13.70;66.30;;;;;;5034482;28;20104;-77
2023/04/28 08:54:36;;;;;;;6.35;5.10;;;13.70;66.30;;;;;;5000846;28;20033;-77
2023/04/28 08:57:03;;;;;;;6.18;4.50;;;13.70;66.20;;;;;;5016603;28;20036;-77
2023/04/28 08:59:30;;;;;;;6.45;5.15;;;13.70;66.20;;;;;;4984896;28;20025;-76
2023/04/28 09:01:56;;;;;;;7.25;5.22;;;13.80;66.20;;;;;;5017145;28;20144;-76
2023/04/28 09:04:22;;;;;;;6.40;5.05;;;13.80;66.20;;;;;;5034555;28;20469;-76
2023/04/28 09:06:48;;;;;;;6.47;4.82;;;13.80;66.20;;;;;;5000449;28;20068;-76
2023/04/28 09:09:30;;;;;;;6.85;5.00;;;13.90;66.20;;;;;;5033763;28;20025;-76
2023/04/28 09:11:58;;;;;;;6.25;4.93;;;13.90;66.20;;;;;;5016131;28;20042;-76
2023/04/28 09:14:25;;;;;;;6.53;5.20;;;13.90;66.10;;;;;;5033651;28;20032;-76
2023/04/28 09:16:52;;;;;;;6.40;4.95;;;14.00;66.20;;;;;;4999463;28;20057;-76
2023/04/28 09:19:18;;;;;;;6.72;4.78;;;14.00;66.10;;;;;;5033607;28;20038;-76
2023/04/28 09:21:48;;;;;;;5.95;4.65;;;14.00;66.20;;;;;;5016145;28;20431;-76
2023/04/28 09:24:33;;;;;;;7.13;5.43;;;14.00;66.10;;;;;;4999514;28;20033;-76
2023/04/28 09:27:01;;;;;;;6.10;4.93;;;14.10;66.20;;;;;;4999523;28;20053;-76
2023/04/28 09:29:28;;;;;;;6.38;4.95;;;14.10;66.10;;;;;;5015805;28;20033;-76
2023/04/28 09:31:54;;;;;;;6.15;4.65;;;14.10;66.10;;;;;;5033678;28;20029;-74
2023/04/28 09:34:23;;;;;;;5.88;4.60;;;14.20;66.10;;;;;;4999190;28;20128;-77
2023/04/28 09:36:48;;;;;;;6.00;4.43;;;14.20;66.10;;;;;;5015668;28;20030;-76
2023/04/28 09:39:14;;;;;;;6.28;4.93;;;14.20;66.10;;;;;;4968109;28;20418;-76
2023/04/28 09:41:42;;;;;;;5.97;4.97;;;14.20;66.10;;;;;;5034228;28;20026;-77
2023/04/28 09:44:16;;;;;;;5.38;4.25;;;14.30;66.10;;;;;;5033247;28;20029;-78
2023/04/28 09:46:45;;;;;;;6.40;4.63;;;14.30;66.10;;;;;;5015771;28;20032;-77
2023/04/28 09:49:12;;;;;;;5.78;4.43;;;14.30;66.00;;;;;;4999204;28;20358;-78
2023/04/28 09:51:38;;;;;;;5.57;4.97;;;14.40;66.00;;;;;;4999061;28;20033;-77
2023/04/28 09:54:04;;;;;;;5.80;4.30;;;14.40;66.00;;;;;;4999170;28;20030;-76
2023/04/28 09:56:32;;;;;;;5.97;4.47;;;14.40;66.00;;;;;;5015596;28;20120;-77
2023/04/28 09:58:59;;;;;;;6.07;4.35;;;14.40;66.00;;;;;;5033586;28;20112;-77
2023/04/28 10:01:31;;;;;;;6.10;4.53;;;14.50;66.00;;;;;;5000011;28;20134;-77
2023/04/28 10:03:58;;;;;;;5.28;4.32;;;14.50;66.00;;;;;;5015830;28;20032;-77
2023/04/28 10:06:26;;;;;;;5.50;4.75;;;14.50;65.90;;;;;;4999164;28;20036;-76
2023/04/28 10:08:52;;;;;;;6.00;4.20;;;14.60;66.00;;;;;;5032967;28;20056;-76
2023/04/28 10:11:19;;;;;;;5.70;4.65;;;14.60;65.90;;;;;;4998975;28;20034;-77
2023/04/28 10:13:46;;;;;;;6.18;4.68;;;14.60;66.00;;;;;;4999087;28;20121;-77
2023/04/28 10:16:13;;;;;;;5.95;4.50;;;14.60;65.90;;;;;;4998970;28;20103;-77
2023/04/28 10:18:39;;;;;;;5.68;4.28;;;14.60;66.50;;;;;;5032857;28;20117;-77
2023/04/28 10:21:06;;;;;;;5.55;4.45;;;14.60;65.90;;;;;;4999022;28;20079;-77
2023/04/28 10:23:47;;;;;;;5.65;4.55;;;14.70;65.90;;;;;;5032774;28;20391;-77
2023/04/28 10:26:17;;;;;;;5.82;4.60;;;14.70;65.90;;;;;;5016065;28;20065;-77
2023/04/28 10:28:47;;;;;;;5.68;4.28;;;14.80;65.90;;;;;;4999305;28;20040;-76
2023/04/28 10:31:20;;;;;;;5.88;4.35;;;14.80;65.90;;;;;;4998925;28;20479;-76
2023/04/28 10:33:46;;;;;;;5.78;4.50;;;14.80;66.00;;;;;;5032709;28;20034;-76
2023/04/28 10:36:47;;;;;;;6.10;4.22;;;14.80;65.90;;;;;;5036526;28;20094;-76
2023/04/28 10:39:13;;;;;;;5.68;4.50;;;14.80;66.00;;;;;;5019502;28;20033;-77
2023/04/28 10:41:38;;;;;;;5.80;4.35;;;14.90;65.90;;;;;;4986444;28;20025;-76
2023/04/28 10:44:29;;;;;;;5.55;4.22;;;14.90;66.00;;;;;;5019252;28;20087;-76
2023/04/28 10:47:08;;;;;;;4.68;3.75;;;14.90;66.00;;;;;;5019454;28;20056;-77
2023/04/28 10:50:00;;;;;;;4.55;3.80;;;15.00;66.00;;;;;;5036788;28;20091;-77
2023/04/28 10:52:38;;;;;;;4.97;4.07;;;15.00;66.10;;;;;;5036629;28;20069;-77
2023/04/28 10:55:32;;;;;;;5.32;4.00;;;15.00;66.00;;;;;;5018854;28;20072;-76
2023/04/28 10:58:15;;;;;;;5.13;3.95;;;15.00;66.10;;;;;;5036795;28;20022;-76
2023/04/28 11:00:44;;;;;;;5.78;4.50;;;15.00;66.00;;;;;;5036723;28;20033;-77
2023/04/28 11:03:50;;;;;;;4.75;3.97;;;15.00;66.00;;;;;;5003444;28;20033;-77
2023/04/28 11:06:22;;;;;;;5.22;4.10;;;15.10;66.10;;;;;;5018674;28;20474;-77
2023/04/28 11:08:48;;;;;;;5.10;4.03;;;15.10;66.00;;;;;;5036299;28;20037;-77
2023/04/28 11:11:15;;;;;;;5.05;4.47;;;15.10;66.00;;;;;;5002291;28;20033;-77
2023/04/28 11:13:42;;;;;;;5.55;4.70;;;15.20;66.10;;;;;;5018399;28;20069;-77
2023/04/28 11:16:08;;;;;;;4.85;4.10;;;15.20;66.10;;;;;;5018871;28;20049;-76
2023/04/28 11:19:04;;;;;;;5.25;4.35;;;15.20;66.10;;;;;;5002440;28;20489;-77
2023/04/28 11:21:31;;;;;;;4.80;3.92;;;15.30;66.20;;;;;;5036423;28;20033;-77
2023/04/28 11:23:57;;;;;;;5.18;4.07;;;15.30;66.10;;;;;;5002325;28;20060;-77
2023/04/28 11:26:23;;;;;;;4.95;3.97;;;15.30;66.10;;;;;;5018208;28;20033;-77
2023/04/28 11:28:57;;;;;;;5.43;4.32;;;15.40;66.10;;;;;;5002674;28;20033;-77
2023/04/28 11:31:24;;;;;;;5.65;4.50;;;15.40;66.20;;;;;;5035986;28;20044;-76
2023/04/28 11:33:54;;;;;;;4.90;4.20;;;15.40;66.10;;;;;;5001899;28;20033;-77
2023/04/28 11:36:23;;;;;;;4.82;4.03;;;15.40;66.10;;;;;;5018222;28;20108;-76
2023/04/28 11:38:49;;;;;;;5.28;4.22;;;15.50;66.20;;;;;;5018556;28;20104;-76
2023/04/28 11:41:15;;;;;;;5.07;4.18;;;15.50;66.20;;;;;;5001838;28;20037;-77
2023/04/28 11:43:41;;;;;;;4.82;4.00;;;15.50;66.10;;;;;;5035484;28;20032;-77
2023/04/28 11:46:07;;;;;;;5.15;4.07;;;15.50;66.10;;;;;;5018083;28;20378;-77
2023/04/28 11:48:33;;;;;;;5.43;4.10;;;15.50;66.80;;;;;;5036264;28;20025;-77
2023/04/28 11:50:59;;;;;;;4.13;3.63;;;15.60;66.20;;;;;;5018076;28;20072;-77
2023/04/28 11:53:43;;;;;;;5.80;4.15;;;15.60;66.20;;;;;;5001506;28;20029;-77
2023/04/28 11:56:09;;;;;;;5.18;3.67;;;15.70;66.30;;;;;;5035740;28;20021;-76
2023/04/28 11:58:34;;;;;;;4.88;3.80;;;15.70;66.30;;;;;;5001621;28;20029;-77
2023/04/28 12:01:11;;;;;;;4.97;3.72;;;15.70;66.30;;;;;;5001738;28;20429;-77
2023/04/28 12:03:46;;;;;;;5.30;4.20;;;15.70;66.30;;;;;;5001793;28;20033;-77
2023/04/28 12:06:17;;;;;;;4.75;3.75;;;15.80;66.30;;;;;;5018444;28;20120;-77
2023/04/28 12:08:43;;;;;;;3.95;3.30;;;15.80;66.30;;;;;;5035652;28;20092;-77
2023/04/28 12:11:11;;;;;;;4.93;3.95;;;15.80;66.30;;;;;;5017381;28;20457;-77
2023/04/28 12:13:38;;;;;;;5.13;4.22;;;15.80;66.30;;;;;;5035111;28;20062;-77
2023/04/28 12:16:05;;;;;;;4.47;3.55;;;15.90;66.30;;;;;;5000626;28;20064;-77
2023/04/28 12:18:38;;;;;;;4.80;3.88;;;15.90;66.30;;;;;;4984767;28;20040;-76
2023/04/28 12:21:18;;;;;;;4.68;3.53;;;15.90;66.30;;;;;;5001142;28;20099;-76
2023/04/28 12:23:44;;;;;;;4.70;3.65;;;16.00;66.30;;;;;;5017486;28;20033;-77
2023/04/28 12:26:10;;;;;;;5.15;4.20;;;16.00;67.00;;;;;;5001121;28;20144;-77
2023/04/28 12:28:37;;;;;;;4.43;3.78;;;16.00;66.30;;;;;;5017694;28;20030;-77
2023/04/28 12:31:07;;;;;;;5.03;3.95;;;16.00;66.30;;;;;;5000626;28;20033;-77
2023/04/28 12:33:36;;;;;;;5.13;4.00;;;16.10;66.40;;;;;;5017761;28;20421;-76
2023/04/28 12:36:06;;;;;;;4.68;3.78;;;16.10;67.00;;;;;;5000918;28;20029;-77
2023/04/28 12:38:32;;;;;;;4.95;4.00;;;16.10;66.40;;;;;;5000703;28;20025;-77
2023/04/28 12:40:57;;;;;;;4.68;3.92;;;16.10;66.30;;;;;;5017128;28;20035;-77
2023/04/28 12:43:25;;;;;;;4.90;4.18;;;16.10;66.30;;;;;;5001207;28;20394;-77
2023/04/28 12:45:52;;;;;;;4.63;3.70;;;16.20;66.40;;;;;;5034273;28;20037;-77
2023/04/28 12:48:18;;;;;;;4.82;3.83;;;16.20;66.40;;;;;;5034412;28;20478;-77
2023/04/28 12:50:44;;;;;;;4.88;3.72;;;16.20;66.40;;;;;;5016558;28;20474;-77